sensor_id;sensor_type;location;lat;lon;timestamp;pressure;altitude;pressure_sealevel;temperature
41654;BMP280;68687;52.030;7.110;2023-04-03T00:00:12;102296.50;;;2.83
41654;BMP280;68687;52.030;7.110;2023-04-03T00:02:38;102300.97;;;2.82
41654;BMP280;68687;52.030;7.110;2023-04-03T00:05:03;102314.59;;;2.90
41654;BMP280;68687;52.030;7.110;2023-04-03T00:07:29;102311.47;;;2.84
41654;BMP280;68687;52.030;7.110;2023-04-03T00:09:55;102307.28;;;2.65
41654;BMP280;68687;52.030;7.110;2023-04-03T00:12:20;102309.34;;;2.60
41654;BMP280;68687;52.030;7.110;2023-04-03T00:14:45;102310.50;;;2.70
41654;BMP280;68687;52.030;7.110;2023-04-03T00:17:11;102312.75;;;2.62
41654;BMP280;68687;52.030;7.110;2023-04-03T00:19:36;102309.34;;;2.60
41654;BMP280;68687;52.030;7.110;2023-04-03T00:22:01;102313.81;;;2.60
41654;BMP280;68687;52.030;7.110;2023-04-03T00:24:27;102317.84;;;2.51
41654;BMP280;68687;52.030;7.110;2023-04-03T00:26:52;102314.53;;;2.47
41654;BMP280;68687;52.030;7.110;2023-04-03T00:29:17;102309.63;;;2.56
41654;BMP280;68687;52.030;7.110;2023-04-03T00:31:42;102319.78;;;2.63
41654;BMP280;68687;52.030;7.110;2023-04-03T00:34:08;102322.34;;;2.35
41654;BMP280;68687;52.030;7.110;2023-04-03T00:36:33;102319.50;;;2.38
41654;BMP280;68687;52.030;7.110;2023-04-03T00:38:58;102323.28;;;2.34
41654;BMP280;68687;52.030;7.110;2023-04-03T00:41:23;102328.22;;;2.40
41654;BMP280;68687;52.030;7.110;2023-04-03T00:43:50;102326.78;;;2.34
41654;BMP280;68687;52.030;7.110;2023-04-03T00:46:15;102325.34;;;2.29
41654;BMP280;68687;52.030;7.110;2023-04-03T00:48:45;102333.88;;;2.34
41654;BMP280;68687;52.030;7.110;2023-04-03T00:51:14;102336.31;;;2.23
41654;BMP280;68687;52.030;7.110;2023-04-03T00:53:52;102330.06;;;2.24
41654;BMP280;68687;52.030;7.110;2023-04-03T00:56:21;102329.81;;;2.12
41654;BMP280;68687;52.030;7.110;2023-04-03T00:58:52;102336.97;;;2.26
41654;BMP280;68687;52.030;7.110;2023-04-03T01:01:24;102317.56;;;2.26
41654;BMP280;68687;52.030;7.110;2023-04-03T01:03:50;102324.31;;;2.15
41654;BMP280;68687;52.030;7.110;2023-04-03T01:06:17;102328.94;;;2.12
41654;BMP280;68687;52.030;7.110;2023-04-03T01:08:44;102326.56;;;2.07
41654;BMP280;68687;52.030;7.110;2023-04-03T01:11:11;102330.94;;;2.08
41654;BMP280;68687;52.030;7.110;2023-04-03T01:13:37;102327.09;;;1.98
41654;BMP280;68687;52.030;7.110;2023-04-03T01:16:04;102332.91;;;2.05
41654;BMP280;68687;52.030;7.110;2023-04-03T01:18:30;102332.22;;;2.01
41654;BMP280;68687;52.030;7.110;2023-04-03T01:23:56;102327.78;;;2.02
41654;BMP280;68687;52.030;7.110;2023-04-03T01:26:23;102335.81;;;2.00
41654;BMP280;68687;52.030;7.110;2023-04-03T01:28:53;102335.63;;;1.88
41654;BMP280;68687;52.030;7.110;2023-04-03T01:31:26;102330.34;;;1.88
41654;BMP280;68687;52.030;7.110;2023-04-03T01:33:53;102342.13;;;1.98
41654;BMP280;68687;52.030;7.110;2023-04-03T01:36:25;102338.19;;;1.89
41654;BMP280;68687;52.030;7.110;2023-04-03T01:38:52;102338.53;;;1.83
41654;BMP280;68687;52.030;7.110;2023-04-03T01:41:18;102351.00;;;1.81
41654;BMP280;68687;52.030;7.110;2023-04-03T01:43:43;102339.06;;;1.74
41654;BMP280;68687;52.030;7.110;2023-04-03T01:46:08;102338.28;;;1.88
41654;BMP280;68687;52.030;7.110;2023-04-03T01:48:34;102358.38;;;1.76
41654;BMP280;68687;52.030;7.110;2023-04-03T01:50:59;102352.00;;;1.63
41654;BMP280;68687;52.030;7.110;2023-04-03T01:53:25;102356.06;;;1.70
41654;BMP280;68687;52.030;7.110;2023-04-03T01:55:50;102360.03;;;1.61
41654;BMP280;68687;52.030;7.110;2023-04-03T01:58:16;102359.31;;;1.75
41654;BMP280;68687;52.030;7.110;2023-04-03T02:00:41;102355.38;;;1.66
41654;BMP280;68687;52.030;7.110;2023-04-03T02:03:06;102350.66;;;1.55
41654;BMP280;68687;52.030;7.110;2023-04-03T02:05:32;102358.69;;;1.54
41654;BMP280;68687;52.030;7.110;2023-04-03T02:07:58;102361.75;;;1.46
41654;BMP280;68687;52.030;7.110;2023-04-03T02:10:23;102352.88;;;1.47
41654;BMP280;68687;52.030;7.110;2023-04-03T02:12:48;102359.81;;;1.33
41654;BMP280;68687;52.030;7.110;2023-04-03T02:15:14;102355.22;;;1.36
41654;BMP280;68687;52.030;7.110;2023-04-03T02:17:39;102350.09;;;1.33
41654;BMP280;68687;52.030;7.110;2023-04-03T02:20:05;102365.78;;;1.36
41654;BMP280;68687;52.030;7.110;2023-04-03T02:22:30;102362.09;;;1.23
41654;BMP280;68687;52.030;7.110;2023-04-03T02:24:56;102367.47;;;1.21
41654;BMP280;68687;52.030;7.110;2023-04-03T02:27:21;102372.84;;;1.20
41654;BMP280;68687;52.030;7.110;2023-04-03T02:29:46;102376.72;;;1.30
41654;BMP280;68687;52.030;7.110;2023-04-03T02:32:12;102368.34;;;1.22
41654;BMP280;68687;52.030;7.110;2023-04-03T02:34:37;102371.75;;;1.24
41654;BMP280;68687;52.030;7.110;2023-04-03T02:37:02;102372.09;;;1.18
41654;BMP280;68687;52.030;7.110;2023-04-03T02:39:27;102379.25;;;0.99
41654;BMP280;68687;52.030;7.110;2023-04-03T02:41:53;102369.63;;;0.98
41654;BMP280;68687;52.030;7.110;2023-04-03T02:44:18;102380.97;;;1.17
41654;BMP280;68687;52.030;7.110;2023-04-03T02:46:44;102373.88;;;1.00
41654;BMP280;68687;52.030;7.110;2023-04-03T02:49:09;102375.38;;;0.88
41654;BMP280;68687;52.030;7.110;2023-04-03T02:51:34;102372.25;;;0.80
41654;BMP280;68687;52.030;7.110;2023-04-03T02:54:00;102387.19;;;0.81
41654;BMP280;68687;52.030;7.110;2023-04-03T02:56:26;102377.53;;;0.80
41654;BMP280;68687;52.030;7.110;2023-04-03T02:58:52;102380.34;;;0.77
41654;BMP280;68687;52.030;7.110;2023-04-03T03:01:17;102379.97;;;0.85
41654;BMP280;68687;52.030;7.110;2023-04-03T03:03:43;102378.56;;;0.78
41654;BMP280;68687;52.030;7.110;2023-04-03T03:06:14;102367.31;;;0.57
41654;BMP280;68687;52.030;7.110;2023-04-03T03:08:40;102376.63;;;0.64
41654;BMP280;68687;52.030;7.110;2023-04-03T03:11:06;102375.94;;;0.60
41654;BMP280;68687;52.030;7.110;2023-04-03T03:13:32;102368.22;;;0.56
41654;BMP280;68687;52.030;7.110;2023-04-03T03:15:57;102373.28;;;0.60
41654;BMP280;68687;52.030;7.110;2023-04-03T03:18:23;102371.94;;;0.52
41654;BMP280;68687;52.030;7.110;2023-04-03T03:20:56;102370.38;;;0.48
41654;BMP280;68687;52.030;7.110;2023-04-03T03:23:23;102365.56;;;0.39
41654;BMP280;68687;52.030;7.110;2023-04-03T03:25:49;102373.19;;;0.45
41654;BMP280;68687;52.030;7.110;2023-04-03T03:28:14;102375.03;;;0.43
41654;BMP280;68687;52.030;7.110;2023-04-03T03:30:39;102379.84;;;0.52
41654;BMP280;68687;52.030;7.110;2023-04-03T03:33:05;102383.44;;;0.34
41654;BMP280;68687;52.030;7.110;2023-04-03T03:35:30;102373.63;;;0.36
41654;BMP280;68687;52.030;7.110;2023-04-03T03:37:56;102364.16;;;0.32
41654;BMP280;68687;52.030;7.110;2023-04-03T03:40:21;102379.00;;;0.34
41654;BMP280;68687;52.030;7.110;2023-04-03T03:42:47;102373.28;;;0.24
41654;BMP280;68687;52.030;7.110;2023-04-03T03:45:12;102378.56;;;0.24
41654;BMP280;68687;52.030;7.110;2023-04-03T03:47:37;102380.28;;;0.25
41654;BMP280;68687;52.030;7.110;2023-04-03T03:50:03;102381.50;;;0.18
41654;BMP280;68687;52.030;7.110;2023-04-03T03:52:28;102388.19;;;0.25
41654;BMP280;68687;52.030;7.110;2023-04-03T03:54:55;102387.56;;;0.20
41654;BMP280;68687;52.030;7.110;2023-04-03T03:57:20;102394.50;;;0.23
41654;BMP280;68687;52.030;7.110;2023-04-03T03:59:46;102387.63;;;0.02
41654;BMP280;68687;52.030;7.110;2023-04-03T04:02:12;102394.56;;;0.21
41654;BMP280;68687;52.030;7.110;2023-04-03T04:04:37;102392.91;;;0.02
41654;BMP280;68687;52.030;7.110;2023-04-03T04:07:03;102394.03;;;-0.04
41654;BMP280;68687;52.030;7.110;2023-04-03T04:09:28;102394.03;;;-0.04
41654;BMP280;68687;52.030;7.110;2023-04-03T04:11:53;102398.25;;;0.00
41654;BMP280;68687;52.030;7.110;2023-04-03T04:14:19;102388.88;;;-0.07
41654;BMP280;68687;52.030;7.110;2023-04-03T04:16:46;102401.00;;;-0.03
41654;BMP280;68687;52.030;7.110;2023-04-03T04:19:11;102401.00;;;-0.03
41654;BMP280;68687;52.030;7.110;2023-04-03T04:21:36;102408.44;;;-0.11
41654;BMP280;68687;52.030;7.110;2023-04-03T04:24:02;102417.78;;;-0.04
41654;BMP280;68687;52.030;7.110;2023-04-03T04:26:27;102407.59;;;-0.12
41654;BMP280;68687;52.030;7.110;2023-04-03T04:28:53;102409.81;;;-0.21
41654;BMP280;68687;52.030;7.110;2023-04-03T04:31:18;102402.81;;;-0.22
41654;BMP280;68687;52.030;7.110;2023-04-03T04:33:43;102402.44;;;-0.34
41654;BMP280;68687;52.030;7.110;2023-04-03T04:36:08;102416.16;;;-0.25
41654;BMP280;68687;52.030;7.110;2023-04-03T04:38:34;102406.56;;;-0.28
41654;BMP280;68687;52.030;7.110;2023-04-03T04:40:59;102413.13;;;-0.37
41654;BMP280;68687;52.030;7.110;2023-04-03T04:43:24;102418.69;;;-0.43
41654;BMP280;68687;52.030;7.110;2023-04-03T04:46:03;102421.56;;;-0.28
41654;BMP280;68687;52.030;7.110;2023-04-03T04:48:29;102419.44;;;-0.20
41654;BMP280;68687;52.030;7.110;2023-04-03T04:50:54;102432.78;;;-0.23
41654;BMP280;68687;52.030;7.110;2023-04-03T04:53:20;102425.41;;;-0.36
41654;BMP280;68687;52.030;7.110;2023-04-03T04:55:45;102418.34;;;-0.35
41654;BMP280;68687;52.030;7.110;2023-04-03T04:58:10;102434.81;;;-0.30
41654;BMP280;68687;52.030;7.110;2023-04-03T05:00:36;102433.38;;;-0.37
41654;BMP280;68687;52.030;7.110;2023-04-03T05:03:01;102439.66;;;-0.40
41654;BMP280;68687;52.030;7.110;2023-04-03T05:05:26;102442.94;;;-0.35
41654;BMP280;68687;52.030;7.110;2023-04-03T05:07:52;102451.66;;;-0.33
41654;BMP280;68687;52.030;7.110;2023-04-03T05:10:17;102441.72;;;-0.46
41654;BMP280;68687;52.030;7.110;2023-04-03T05:12:42;102442.44;;;-0.43
41654;BMP280;68687;52.030;7.110;2023-04-03T05:15:08;102447.22;;;-0.51
41654;BMP280;68687;52.030;7.110;2023-04-03T05:17:33;102455.78;;;-0.46
41654;BMP280;68687;52.030;7.110;2023-04-03T05:19:59;102450.22;;;-0.40
41654;BMP280;68687;52.030;7.110;2023-04-03T05:22:24;102466.34;;;-0.46
41654;BMP280;68687;52.030;7.110;2023-04-03T05:24:49;102458.78;;;-0.35
41654;BMP280;68687;52.030;7.110;2023-04-03T05:27:14;102470.69;;;-0.45
41654;BMP280;68687;52.030;7.110;2023-04-03T05:29:40;102462.91;;;-0.48
41654;BMP280;68687;52.030;7.110;2023-04-03T05:32:08;102476.31;;;-0.34
41654;BMP280;68687;52.030;7.110;2023-04-03T05:34:34;102476.41;;;-0.35
41654;BMP280;68687;52.030;7.110;2023-04-03T05:36:59;102465.19;;;-0.40
41654;BMP280;68687;52.030;7.110;2023-04-03T05:39:24;102470.91;;;-0.31
41654;BMP280;68687;52.030;7.110;2023-04-03T05:41:50;102469.72;;;-0.23
41654;BMP280;68687;52.030;7.110;2023-04-03T05:44:15;102477.94;;;-0.11
41654;BMP280;68687;52.030;7.110;2023-04-03T05:46:41;102472.97;;;0.02
41654;BMP280;68687;52.030;7.110;2023-04-03T05:49:06;102483.38;;;0.05
41654;BMP280;68687;52.030;7.110;2023-04-03T05:51:35;102482.03;;;0.15
41654;BMP280;68687;52.030;7.110;2023-04-03T05:54:08;102486.38;;;0.16
41654;BMP280;68687;52.030;7.110;2023-04-03T05:56:34;102479.09;;;0.21
41654;BMP280;68687;52.030;7.110;2023-04-03T05:59:00;102486.00;;;0.43
41654;BMP280;68687;52.030;7.110;2023-04-03T06:01:25;102487.66;;;0.26
41654;BMP280;68687;52.030;7.110;2023-04-03T06:03:51;102491.88;;;0.30
41654;BMP280;68687;52.030;7.110;2023-04-03T06:06:16;102486.00;;;0.43
41654;BMP280;68687;52.030;7.110;2023-04-03T06:08:42;102491.06;;;0.47
41654;BMP280;68687;52.030;7.110;2023-04-03T06:11:09;102483.28;;;0.63
41654;BMP280;68687;52.030;7.110;2023-04-03T06:13:34;102490.13;;;0.67
41654;BMP280;68687;52.030;7.110;2023-04-03T06:16:00;102491.06;;;0.66
41654;BMP280;68687;52.030;7.110;2023-04-03T06:18:25;102492.31;;;0.76
41654;BMP280;68687;52.030;7.110;2023-04-03T06:20:51;102490.97;;;0.68
41654;BMP280;68687;52.030;7.110;2023-04-03T06:23:16;102501.47;;;0.69
41654;BMP280;68687;52.030;7.110;2023-04-03T06:25:42;102495.19;;;0.72
41654;BMP280;68687;52.030;7.110;2023-04-03T06:28:09;102503.03;;;0.73
41654;BMP280;68687;52.030;7.110;2023-04-03T06:30:36;102503.66;;;0.78
41654;BMP280;68687;52.030;7.110;2023-04-03T06:33:01;102500.25;;;0.76
41654;BMP280;68687;52.030;7.110;2023-04-03T06:35:27;102504.41;;;0.63
41654;BMP280;68687;52.030;7.110;2023-04-03T06:37:53;102507.69;;;0.68
41654;BMP280;68687;52.030;7.110;2023-04-03T06:40:22;102518.03;;;0.73
41654;BMP280;68687;52.030;7.110;2023-04-03T06:42:48;102504.16;;;0.86
41654;BMP280;68687;52.030;7.110;2023-04-03T06:45:14;102514.28;;;0.96
41654;BMP280;68687;52.030;7.110;2023-04-03T06:47:40;102521.28;;;0.97
41654;BMP280;68687;52.030;7.110;2023-04-03T06:50:05;102515.53;;;0.88
41654;BMP280;68687;52.030;7.110;2023-04-03T06:52:31;102520.66;;;0.91
41654;BMP280;68687;52.030;7.110;2023-04-03T06:54:57;102517.00;;;0.94
41654;BMP280;68687;52.030;7.110;2023-04-03T06:57:24;102516.66;;;1.19
41654;BMP280;68687;52.030;7.110;2023-04-03T06:59:50;102522.47;;;1.26
41654;BMP280;68687;52.030;7.110;2023-04-03T07:02:15;102525.41;;;1.37
41654;BMP280;68687;52.030;7.110;2023-04-03T07:04:40;102523.47;;;1.58
41654;BMP280;68687;52.030;7.110;2023-04-03T07:07:06;102541.66;;;1.81
41654;BMP280;68687;52.030;7.110;2023-04-03T07:09:32;102539.09;;;2.12
41654;BMP280;68687;52.030;7.110;2023-04-03T07:11:57;102535.47;;;2.31
41654;BMP280;68687;52.030;7.110;2023-04-03T07:14:23;102542.06;;;2.24
41654;BMP280;68687;52.030;7.110;2023-04-03T07:16:48;102542.41;;;2.49
41654;BMP280;68687;52.030;7.110;2023-04-03T07:19:13;102548.94;;;2.75
41654;BMP280;68687;52.030;7.110;2023-04-03T07:21:39;102536.41;;;2.93
41654;BMP280;68687;52.030;7.110;2023-04-03T07:24:06;102544.66;;;3.18
41654;BMP280;68687;52.030;7.110;2023-04-03T07:26:32;102554.28;;;3.05
41654;BMP280;68687;52.030;7.110;2023-04-03T07:28:57;102547.91;;;3.23
41654;BMP280;68687;52.030;7.110;2023-04-03T07:31:22;102540.47;;;3.14
41654;BMP280;68687;52.030;7.110;2023-04-03T07:33:48;102538.97;;;3.40
41654;BMP280;68687;52.030;7.110;2023-04-03T07:36:19;102541.34;;;3.89
41654;BMP280;68687;52.030;7.110;2023-04-03T07:38:45;102548.50;;;3.58
41654;BMP280;68687;52.030;7.110;2023-04-03T07:41:16;102554.72;;;4.01
41654;BMP280;68687;52.030;7.110;2023-04-03T07:43:43;102552.25;;;3.98
41654;BMP280;68687;52.030;7.110;2023-04-03T07:46:09;102560.59;;;4.07
41654;BMP280;68687;52.030;7.110;2023-04-03T07:48:34;102551.00;;;4.04
41654;BMP280;68687;52.030;7.110;2023-04-03T07:51:01;102557.06;;;4.90
41654;BMP280;68687;52.030;7.110;2023-04-03T07:53:27;102549.47;;;4.84
41654;BMP280;68687;52.030;7.110;2023-04-03T07:55:53;102549.66;;;4.95
41654;BMP280;68687;52.030;7.110;2023-04-03T07:58:20;102558.72;;;4.78
41654;BMP280;68687;52.030;7.110;2023-04-03T08:00:46;102552.34;;;5.08
41654;BMP280;68687;52.030;7.110;2023-04-03T08:03:13;102561.44;;;4.91
41654;BMP280;68687;52.030;7.110;2023-04-03T08:05:44;102558.19;;;5.27
41654;BMP280;68687;52.030;7.110;2023-04-03T08:08:12;102556.91;;;5.33
41654;BMP280;68687;52.030;7.110;2023-04-03T08:10:38;102557.28;;;5.66
41654;BMP280;68687;52.030;7.110;2023-04-03T08:13:04;102561.59;;;5.94
41654;BMP280;68687;52.030;7.110;2023-04-03T08:15:30;102560.09;;;5.77
41654;BMP280;68687;52.030;7.110;2023-04-03T08:17:56;102561.72;;;5.93
41654;BMP280;68687;52.030;7.110;2023-04-03T08:20:21;102560.00;;;6.17
41654;BMP280;68687;52.030;7.110;2023-04-03T08:22:46;102568.53;;;5.97
41654;BMP280;68687;52.030;7.110;2023-04-03T08:25:12;102565.63;;;5.87
41654;BMP280;68687;52.030;7.110;2023-04-03T08:27:37;102555.41;;;5.94
41654;BMP280;68687;52.030;7.110;2023-04-03T08:30:03;102555.53;;;6.17
41654;BMP280;68687;52.030;7.110;2023-04-03T08:32:29;102559.34;;;6.39
41654;BMP280;68687;52.030;7.110;2023-04-03T08:34:54;102572.06;;;6.35
41654;BMP280;68687;52.030;7.110;2023-04-03T08:37:20;102568.66;;;6.33
41654;BMP280;68687;52.030;7.110;2023-04-03T08:39:45;102568.31;;;6.38
41654;BMP280;68687;52.030;7.110;2023-04-03T08:42:17;102577.91;;;6.40
41654;BMP280;68687;52.030;7.110;2023-04-03T08:44:57;102569.28;;;5.99
41654;BMP280;68687;52.030;7.110;2023-04-03T08:49:57;102570.38;;;6.71
41654;BMP280;68687;52.030;7.110;2023-04-03T08:52:38;102572.13;;;6.83
41654;BMP280;68687;52.030;7.110;2023-04-03T08:57:43;102568.63;;;6.82
41654;BMP280;68687;52.030;7.110;2023-04-03T09:00:19;102557.16;;;7.17
41654;BMP280;68687;52.030;7.110;2023-04-03T09:02:53;102557.56;;;7.24
41654;BMP280;68687;52.030;7.110;2023-04-03T09:05:29;102557.69;;;7.57
41654;BMP280;68687;52.030;7.110;2023-04-03T09:08:01;102560.78;;;7.40
41654;BMP280;68687;52.030;7.110;2023-04-03T09:10:32;102558.53;;;7.23
41654;BMP280;68687;52.030;7.110;2023-04-03T09:13:06;102564.44;;;7.85
41654;BMP280;68687;52.030;7.110;2023-04-03T09:15:34;102582.28;;;7.85
41654;BMP280;68687;52.030;7.110;2023-04-03T09:19:02;102564.19;;;7.42
41654;BMP280;68687;52.030;7.110;2023-04-03T09:21:18;102574.56;;;8.15
41654;BMP280;68687;52.030;7.110;2023-04-03T09:23:51;102570.56;;;8.32
41654;BMP280;68687;52.030;7.110;2023-04-03T09:26:30;102570.56;;;8.32
41654;BMP280;68687;52.030;7.110;2023-04-03T09:29:02;102568.91;;;7.85
41654;BMP280;68687;52.030;7.110;2023-04-03T09:31:36;102564.34;;;7.98
41654;BMP280;68687;52.030;7.110;2023-04-03T09:34:06;102567.72;;;7.89
41654;BMP280;68687;52.030;7.110;2023-04-03T09:36:48;102560.75;;;8.55
41654;BMP280;68687;52.030;7.110;2023-04-03T09:39:23;102558.66;;;8.25
41654;BMP280;68687;52.030;7.110;2023-04-03T09:42:16;102572.13;;;8.01
41654;BMP280;68687;52.030;7.110;2023-04-03T09:44:53;102574.31;;;8.74
41654;BMP280;68687;52.030;7.110;2023-04-03T09:47:30;102563.91;;;8.38
41654;BMP280;68687;52.030;7.110;2023-04-03T09:52:42;102572.06;;;7.79
41654;BMP280;68687;52.030;7.110;2023-04-03T09:55:14;102562.53;;;7.63
41654;BMP280;68687;52.030;7.110;2023-04-03T09:57:40;102558.31;;;7.37
41654;BMP280;68687;52.030;7.110;2023-04-03T10:00:10;102563.50;;;7.97
41654;BMP280;68687;52.030;7.110;2023-04-03T10:02:44;102557.03;;;8.11
41654;BMP280;68687;52.030;7.110;2023-04-03T10:05:26;102564.03;;;8.36
41654;BMP280;68687;52.030;7.110;2023-04-03T10:08:10;102570.47;;;8.45
41654;BMP280;68687;52.030;7.110;2023-04-03T10:10:36;102562.63;;;7.97
41654;BMP280;68687;52.030;7.110;2023-04-03T10:13:13;102549.88;;;8.00
41654;BMP280;68687;52.030;7.110;2023-04-03T10:15:42;102563.16;;;8.24
41654;BMP280;68687;52.030;7.110;2023-04-03T10:18:25;102554.81;;;7.71
41654;BMP280;68687;52.030;7.110;2023-04-03T10:20:53;102540.28;;;8.31
41654;BMP280;68687;52.030;7.110;2023-04-03T10:23:45;102544.91;;;8.41
41654;BMP280;68687;52.030;7.110;2023-04-03T10:26:28;102537.81;;;7.84
41654;BMP280;68687;52.030;7.110;2023-04-03T10:31:45;102544.31;;;8.37
41654;BMP280;68687;52.030;7.110;2023-04-03T10:34:23;102536.88;;;7.96
41654;BMP280;68687;52.030;7.110;2023-04-03T10:39:30;102529.72;;;8.52
41654;BMP280;68687;52.030;7.110;2023-04-03T10:42:09;102536.13;;;8.05
41654;BMP280;68687;52.030;7.110;2023-04-03T10:45:00;102520.28;;;8.80
41654;BMP280;68687;52.030;7.110;2023-04-03T10:47:32;102513.66;;;8.41
41654;BMP280;68687;52.030;7.110;2023-04-03T10:53:21;102522.38;;;8.21
41654;BMP280;68687;52.030;7.110;2023-04-03T10:56:03;102517.28;;;8.18
41654;BMP280;68687;52.030;7.110;2023-04-03T10:58:40;102513.41;;;8.98
41654;BMP280;68687;52.030;7.110;2023-04-03T11:01:16;102515.28;;;8.76
41654;BMP280;68687;52.030;7.110;2023-04-03T11:03:59;102509.13;;;8.19
41654;BMP280;68687;52.030;7.110;2023-04-03T11:06:32;102507.75;;;9.13
41654;BMP280;68687;52.030;7.110;2023-04-03T11:11:44;102506.22;;;8.45
41654;BMP280;68687;52.030;7.110;2023-04-03T11:14:21;102513.94;;;8.81
41654;BMP280;68687;52.030;7.110;2023-04-03T11:17:11;102493.31;;;8.16
41654;BMP280;68687;52.030;7.110;2023-04-03T11:19:46;102490.41;;;8.08
41654;BMP280;68687;52.030;7.110;2023-04-03T11:22:23;102496.75;;;8.29
41654;BMP280;68687;52.030;7.110;2023-04-03T11:27:44;102484.34;;;8.51
41654;BMP280;68687;52.030;7.110;2023-04-03T11:36:07;102491.91;;;8.34
41654;BMP280;68687;52.030;7.110;2023-04-03T11:38:36;102483.34;;;8.18
41654;BMP280;68687;52.030;7.110;2023-04-03T11:41:06;102488.09;;;8.15
41654;BMP280;68687;52.030;7.110;2023-04-03T11:43:33;102488.47;;;8.44
41654;BMP280;68687;52.030;7.110;2023-04-03T11:46:02;102493.69;;;7.89
41654;BMP280;68687;52.030;7.110;2023-04-03T11:50:54;102492.47;;;7.82
41654;BMP280;68687;52.030;7.110;2023-04-03T11:53:37;102482.63;;;8.39
41654;BMP280;68687;52.030;7.110;2023-04-03T12:04:24;102458.16;;;7.42
41654;BMP280;68687;52.030;7.110;2023-04-03T12:06:53;102472.34;;;6.97
41654;BMP280;68687;52.030;7.110;2023-04-03T12:11:53;102455.97;;;7.01
41654;BMP280;68687;52.030;7.110;2023-04-03T12:14:22;102463.00;;;6.91
41654;BMP280;68687;52.030;7.110;2023-04-03T12:16:49;102457.56;;;7.04
41654;BMP280;68687;52.030;7.110;2023-04-03T12:19:33;102456.59;;;6.81
41654;BMP280;68687;52.030;7.110;2023-04-03T12:24:30;102457.22;;;6.85
41654;BMP280;68687;52.030;7.110;2023-04-03T12:35:07;102453.50;;;6.63
41654;BMP280;68687;52.030;7.110;2023-04-03T12:48:38;102434.88;;;7.09
41654;BMP280;68687;52.030;7.110;2023-04-03T12:51:03;102431.41;;;6.85
41654;BMP280;68687;52.030;7.110;2023-04-03T12:53:35;102425.00;;;6.88
41654;BMP280;68687;52.030;7.110;2023-04-03T12:58:50;102427.88;;;7.31
41654;BMP280;68687;52.030;7.110;2023-04-03T13:01:24;102422.41;;;7.21
41654;BMP280;68687;52.030;7.110;2023-04-03T13:03:58;102424.16;;;6.87
41654;BMP280;68687;52.030;7.110;2023-04-03T13:06:37;102421.31;;;7.12
41654;BMP280;68687;52.030;7.110;2023-04-03T13:09:03;102413.50;;;7.09
41654;BMP280;68687;52.030;7.110;2023-04-03T13:11:36;102422.25;;;7.11
41654;BMP280;68687;52.030;7.110;2023-04-03T13:14:05;102405.66;;;7.30
41654;BMP280;68687;52.030;7.110;2023-04-03T13:16:39;102415.00;;;7.13
41654;BMP280;68687;52.030;7.110;2023-04-03T13:19:06;102409.25;;;7.07
41654;BMP280;68687;52.030;7.110;2023-04-03T13:21:40;102423.91;;;6.90
41654;BMP280;68687;52.030;7.110;2023-04-03T13:24:08;102407.19;;;6.99
41654;BMP280;68687;52.030;7.110;2023-04-03T13:26:33;102406.56;;;6.96
41654;BMP280;68687;52.030;7.110;2023-04-03T13:29:02;102399.16;;;6.99
41654;BMP280;68687;52.030;7.110;2023-04-03T13:31:32;102399.72;;;7.16
41654;BMP280;68687;52.030;7.110;2023-04-03T13:34:12;102407.00;;;7.13
41654;BMP280;68687;52.030;7.110;2023-04-03T13:36:40;102404.09;;;7.17
41654;BMP280;68687;52.030;7.110;2023-04-03T13:39:22;102402.44;;;7.03
41654;BMP280;68687;52.030;7.110;2023-04-03T13:41:50;102405.00;;;7.04
41654;BMP280;68687;52.030;7.110;2023-04-03T13:44:17;102378.28;;;6.93
41654;BMP280;68687;52.030;7.110;2023-04-03T13:46:44;102382.47;;;7.20
41654;BMP280;68687;52.030;7.110;2023-04-03T13:51:56;102378.59;;;7.12
41654;BMP280;68687;52.030;7.110;2023-04-03T13:54:37;102375.50;;;7.06
41654;BMP280;68687;52.030;7.110;2023-04-03T13:57:03;102372.03;;;7.17
41654;BMP280;68687;52.030;7.110;2023-04-03T13:59:35;102371.63;;;7.10
41654;BMP280;68687;52.030;7.110;2023-04-03T14:04:29;102375.91;;;7.12
41654;BMP280;68687;52.030;7.110;2023-04-03T14:06:55;102359.13;;;6.99
41654;BMP280;68687;52.030;7.110;2023-04-03T14:09:22;102370.44;;;7.14
41654;BMP280;68687;52.030;7.110;2023-04-03T14:11:49;102354.91;;;7.19
41654;BMP280;68687;52.030;7.110;2023-04-03T14:14:22;102356.25;;;7.25
41654;BMP280;68687;52.030;7.110;2023-04-03T14:16:53;102353.59;;;7.47
41654;BMP280;68687;52.030;7.110;2023-04-03T14:21:47;102342.88;;;7.36
41654;BMP280;68687;52.030;7.110;2023-04-03T14:24:12;102342.66;;;7.39
41654;BMP280;68687;52.030;7.110;2023-04-03T14:26:38;102357.56;;;7.08
41654;BMP280;68687;52.030;7.110;2023-04-03T14:29:03;102350.69;;;6.81
41654;BMP280;68687;52.030;7.110;2023-04-03T14:31:28;102360.44;;;6.94
41654;BMP280;68687;52.030;7.110;2023-04-03T14:33:54;102351.59;;;6.93
41654;BMP280;68687;52.030;7.110;2023-04-03T14:36:21;102353.91;;;7.09
41654;BMP280;68687;52.030;7.110;2023-04-03T14:38:49;102353.06;;;7.08
41654;BMP280;68687;52.030;7.110;2023-04-03T14:41:17;102353.53;;;7.02
41654;BMP280;68687;52.030;7.110;2023-04-03T14:43:45;102347.47;;;7.00
41654;BMP280;68687;52.030;7.110;2023-04-03T14:46:21;102349.53;;;7.08
41654;BMP280;68687;52.030;7.110;2023-04-03T14:48:47;102354.50;;;6.90
41654;BMP280;68687;52.030;7.110;2023-04-03T14:51:14;102344.25;;;6.84
41654;BMP280;68687;52.030;7.110;2023-04-03T14:53:40;102344.06;;;7.09
41654;BMP280;68687;52.030;7.110;2023-04-03T14:56:12;102332.19;;;7.02
41654;BMP280;68687;52.030;7.110;2023-04-03T14:58:39;102329.16;;;7.07
41654;BMP280;68687;52.030;7.110;2023-04-03T15:01:04;102334.97;;;7.01
41654;BMP280;68687;52.030;7.110;2023-04-03T15:03:29;102328.28;;;7.06
41654;BMP280;68687;52.030;7.110;2023-04-03T15:05:55;102319.47;;;7.17
41654;BMP280;68687;52.030;7.110;2023-04-03T15:08:23;102334.88;;;7.36
41654;BMP280;68687;52.030;7.110;2023-04-03T15:10:50;102339.13;;;7.16
41654;BMP280;68687;52.030;7.110;2023-04-03T15:13:18;102337.88;;;6.87
41654;BMP280;68687;52.030;7.110;2023-04-03T15:15:44;102325.94;;;6.79
41654;BMP280;68687;52.030;7.110;2023-04-03T15:18:19;102329.69;;;6.66
41654;BMP280;68687;52.030;7.110;2023-04-03T15:20:45;102331.50;;;6.65
41654;BMP280;68687;52.030;7.110;2023-04-03T15:23:12;102314.03;;;6.72
41654;BMP280;68687;52.030;7.110;2023-04-03T15:25:39;102332.25;;;6.78
41654;BMP280;68687;52.030;7.110;2023-04-03T15:28:05;102323.63;;;6.75